sensor_id;sensor_type;location;lat;lon;timestamp;P1;durP1;ratioP1;P2;durP2;ratioP2
3443;SDS011;1736;52.068;6.968;2022-09-12T00:00:50;18.70;;;13.07;;
3443;SDS011;1736;52.068;6.968;2022-09-12T00:03:17;19.03;;;12.20;;
3443;SDS011;1736;52.068;6.968;2022-09-12T00:05:44;20.03;;;13.80;;
3443;SDS011;1736;52.068;6.968;2022-09-12T00:08:12;21.10;;;13.80;;
3443;SDS011;1736;52.068;6.968;2022-09-12T00:10:41;20.77;;;14.30;;
3443;SDS011;1736;52.068;6.968;2022-09-12T00:13:10;27.93;;;16.13;;
3443;SDS011;1736;52.068;6.968;2022-09-12T00:15:37;20.87;;;14.43;;
3443;SDS011;1736;52.068;6.968;2022-09-12T00:18:04;27.43;;;16.90;;
3443;SDS011;1736;52.068;6.968;2022-09-12T00:20:31;27.17;;;16.67;;
3443;SDS011;1736;52.068;6.968;2022-09-12T00:22:58;23.87;;;15.60;;
3443;SDS011;1736;52.068;6.968;2022-09-12T00:25:24;30.20;;;17.73;;
3443;SDS011;1736;52.068;6.968;2022-09-12T00:27:53;27.17;;;15.90;;
3443;SDS011;1736;52.068;6.968;2022-09-12T00:30:19;23.43;;;16.40;;
3443;SDS011;1736;52.068;6.968;2022-09-12T00:32:46;25.10;;;16.00;;
3443;SDS011;1736;52.068;6.968;2022-09-12T00:35:13;22.87;;;16.00;;
3443;SDS011;1736;52.068;6.968;2022-09-12T00:37:39;33.83;;;18.07;;
3443;SDS011;1736;52.068;6.968;2022-09-12T00:40:06;28.63;;;16.27;;
3443;SDS011;1736;52.068;6.968;2022-09-12T00:42:33;33.07;;;18.00;;
3443;SDS011;1736;52.068;6.968;2022-09-12T00:45:01;24.17;;;15.37;;
3443;SDS011;1736;52.068;6.968;2022-09-12T00:47:28;30.50;;;18.50;;
3443;SDS011;1736;52.068;6.968;2022-09-12T00:49:58;28.13;;;17.03;;
3443;SDS011;1736;52.068;6.968;2022-09-12T00:52:31;33.00;;;19.57;;
3443;SDS011;1736;52.068;6.968;2022-09-12T00:55:02;35.93;;;19.13;;
3443;SDS011;1736;52.068;6.968;2022-09-12T00:57:34;32.07;;;18.97;;
3443;SDS011;1736;52.068;6.968;2022-09-12T01:00:08;32.37;;;19.20;;
3443;SDS011;1736;52.068;6.968;2022-09-12T01:02:40;31.50;;;19.83;;
3443;SDS011;1736;52.068;6.968;2022-09-12T01:05:08;34.93;;;19.60;;
3443;SDS011;1736;52.068;6.968;2022-09-12T01:07:34;40.40;;;20.03;;
3443;SDS011;1736;52.068;6.968;2022-09-12T01:10:02;35.67;;;19.07;;
3443;SDS011;1736;52.068;6.968;2022-09-12T01:12:30;33.27;;;19.10;;
3443;SDS011;1736;52.068;6.968;2022-09-12T01:14:57;40.43;;;20.70;;
3443;SDS011;1736;52.068;6.968;2022-09-12T01:17:25;33.53;;;19.13;;
3443;SDS011;1736;52.068;6.968;2022-09-12T01:20:07;30.80;;;18.40;;
3443;SDS011;1736;52.068;6.968;2022-09-12T01:23:01;32.20;;;18.83;;
3443;SDS011;1736;52.068;6.968;2022-09-12T01:25:45;35.17;;;20.00;;
3443;SDS011;1736;52.068;6.968;2022-09-12T01:31:30;33.43;;;18.93;;
3443;SDS011;1736;52.068;6.968;2022-09-12T01:34:05;30.63;;;19.20;;
3443;SDS011;1736;52.068;6.968;2022-09-12T01:36:42;33.70;;;19.87;;
3443;SDS011;1736;52.068;6.968;2022-09-12T01:39:19;35.30;;;20.00;;
3443;SDS011;1736;52.068;6.968;2022-09-12T01:41:58;32.20;;;19.43;;
3443;SDS011;1736;52.068;6.968;2022-09-12T01:44:35;33.47;;;19.50;;
3443;SDS011;1736;52.068;6.968;2022-09-12T01:47:13;33.60;;;18.83;;
3443;SDS011;1736;52.068;6.968;2022-09-12T01:49:48;31.57;;;18.10;;
3443;SDS011;1736;52.068;6.968;2022-09-12T01:52:21;35.70;;;18.40;;
3443;SDS011;1736;52.068;6.968;2022-09-12T01:54:53;30.30;;;18.23;;
3443;SDS011;1736;52.068;6.968;2022-09-12T01:57:24;32.27;;;18.40;;
3443;SDS011;1736;52.068;6.968;2022-09-12T01:59:55;29.87;;;18.63;;
3443;SDS011;1736;52.068;6.968;2022-09-12T02:02:27;32.00;;;19.50;;
3443;SDS011;1736;52.068;6.968;2022-09-12T02:04:59;34.13;;;19.10;;
3443;SDS011;1736;52.068;6.968;2022-09-12T02:07:32;31.40;;;18.77;;
3443;SDS011;1736;52.068;6.968;2022-09-12T02:10:04;32.43;;;19.10;;
3443;SDS011;1736;52.068;6.968;2022-09-12T02:12:37;32.37;;;19.53;;
3443;SDS011;1736;52.068;6.968;2022-09-12T02:15:08;31.40;;;18.47;;
3443;SDS011;1736;52.068;6.968;2022-09-12T02:17:39;33.67;;;19.87;;
3443;SDS011;1736;52.068;6.968;2022-09-12T02:20:09;34.23;;;19.90;;
3443;SDS011;1736;52.068;6.968;2022-09-12T02:22:40;39.03;;;20.87;;
3443;SDS011;1736;52.068;6.968;2022-09-12T02:25:09;38.40;;;20.97;;
3443;SDS011;1736;52.068;6.968;2022-09-12T02:27:41;36.47;;;20.37;;
3443;SDS011;1736;52.068;6.968;2022-09-12T02:30:12;34.33;;;19.80;;
3443;SDS011;1736;52.068;6.968;2022-09-12T02:32:43;35.53;;;19.33;;
3443;SDS011;1736;52.068;6.968;2022-09-12T02:35:21;33.17;;;19.97;;
3443;SDS011;1736;52.068;6.968;2022-09-12T02:37:56;31.20;;;18.23;;
3443;SDS011;1736;52.068;6.968;2022-09-12T02:40:27;34.83;;;18.63;;
3443;SDS011;1736;52.068;6.968;2022-09-12T02:43:01;36.27;;;19.57;;
3443;SDS011;1736;52.068;6.968;2022-09-12T02:45:36;32.73;;;19.50;;
3443;SDS011;1736;52.068;6.968;2022-09-12T02:48:05;43.23;;;20.13;;
3443;SDS011;1736;52.068;6.968;2022-09-12T02:50:42;39.77;;;21.00;;
3443;SDS011;1736;52.068;6.968;2022-09-12T02:53:09;33.50;;;19.23;;
3443;SDS011;1736;52.068;6.968;2022-09-12T02:55:36;31.43;;;17.70;;
3443;SDS011;1736;52.068;6.968;2022-09-12T02:58:12;37.83;;;19.97;;
3443;SDS011;1736;52.068;6.968;2022-09-12T03:00:43;35.00;;;20.33;;
3443;SDS011;1736;52.068;6.968;2022-09-12T03:03:19;38.80;;;21.87;;
3443;SDS011;1736;52.068;6.968;2022-09-12T03:05:58;40.90;;;19.90;;
3443;SDS011;1736;52.068;6.968;2022-09-12T03:11:26;35.80;;;20.43;;
3443;SDS011;1736;52.068;6.968;2022-09-12T03:14:25;39.23;;;21.87;;
3443;SDS011;1736;52.068;6.968;2022-09-12T03:17:04;38.47;;;21.10;;
3443;SDS011;1736;52.068;6.968;2022-09-12T03:19:39;44.03;;;21.97;;
3443;SDS011;1736;52.068;6.968;2022-09-12T03:22:15;41.53;;;22.00;;
3443;SDS011;1736;52.068;6.968;2022-09-12T03:24:48;41.07;;;22.40;;
3443;SDS011;1736;52.068;6.968;2022-09-12T03:27:21;42.07;;;21.17;;
3443;SDS011;1736;52.068;6.968;2022-09-12T03:29:52;36.30;;;21.13;;
3443;SDS011;1736;52.068;6.968;2022-09-12T03:32:26;38.03;;;22.00;;
3443;SDS011;1736;52.068;6.968;2022-09-12T03:35:07;37.57;;;21.50;;
3443;SDS011;1736;52.068;6.968;2022-09-12T03:37:34;45.83;;;22.67;;
3443;SDS011;1736;52.068;6.968;2022-09-12T03:40:01;42.30;;;21.93;;
3443;SDS011;1736;52.068;6.968;2022-09-12T03:42:29;45.03;;;22.23;;
3443;SDS011;1736;52.068;6.968;2022-09-12T03:44:55;44.33;;;23.43;;
3443;SDS011;1736;52.068;6.968;2022-09-12T03:47:22;40.80;;;20.20;;
3443;SDS011;1736;52.068;6.968;2022-09-12T03:49:49;38.23;;;20.13;;
3443;SDS011;1736;52.068;6.968;2022-09-12T03:52:17;45.47;;;21.80;;
3443;SDS011;1736;52.068;6.968;2022-09-12T03:54:44;38.83;;;20.40;;
3443;SDS011;1736;52.068;6.968;2022-09-12T03:57:17;40.50;;;20.50;;
3443;SDS011;1736;52.068;6.968;2022-09-12T03:59:43;36.47;;;19.87;;
3443;SDS011;1736;52.068;6.968;2022-09-12T04:02:10;35.33;;;19.43;;
3443;SDS011;1736;52.068;6.968;2022-09-12T04:04:37;40.63;;;19.63;;
3443;SDS011;1736;52.068;6.968;2022-09-12T04:07:06;42.87;;;20.77;;
3443;SDS011;1736;52.068;6.968;2022-09-12T04:09:34;39.00;;;21.93;;
3443;SDS011;1736;52.068;6.968;2022-09-12T04:12:01;39.10;;;20.50;;
3443;SDS011;1736;52.068;6.968;2022-09-12T04:14:27;41.47;;;21.23;;
3443;SDS011;1736;52.068;6.968;2022-09-12T04:16:54;45.47;;;22.50;;
3443;SDS011;1736;52.068;6.968;2022-09-12T04:19:21;42.90;;;21.07;;
3443;SDS011;1736;52.068;6.968;2022-09-12T04:21:47;41.43;;;20.93;;
3443;SDS011;1736;52.068;6.968;2022-09-12T04:24:14;36.63;;;20.93;;
3443;SDS011;1736;52.068;6.968;2022-09-12T04:26:42;39.13;;;21.43;;
3443;SDS011;1736;52.068;6.968;2022-09-12T04:29:09;45.87;;;22.67;;
3443;SDS011;1736;52.068;6.968;2022-09-12T04:31:36;42.63;;;20.87;;
3443;SDS011;1736;52.068;6.968;2022-09-12T04:34:03;39.23;;;21.63;;
3443;SDS011;1736;52.068;6.968;2022-09-12T04:36:30;44.63;;;22.00;;
3443;SDS011;1736;52.068;6.968;2022-09-12T04:38:57;39.03;;;20.13;;
3443;SDS011;1736;52.068;6.968;2022-09-12T04:41:25;36.20;;;19.37;;
3443;SDS011;1736;52.068;6.968;2022-09-12T04:43:55;35.27;;;19.20;;
3443;SDS011;1736;52.068;6.968;2022-09-12T04:46:25;35.27;;;19.27;;
3443;SDS011;1736;52.068;6.968;2022-09-12T04:48:52;38.20;;;19.93;;
3443;SDS011;1736;52.068;6.968;2022-09-12T04:51:21;37.50;;;19.30;;
3443;SDS011;1736;52.068;6.968;2022-09-12T04:53:52;34.43;;;19.70;;
3443;SDS011;1736;52.068;6.968;2022-09-12T04:56:20;41.53;;;20.53;;
3443;SDS011;1736;52.068;6.968;2022-09-12T04:58:47;40.70;;;20.70;;
3443;SDS011;1736;52.068;6.968;2022-09-12T05:01:16;44.97;;;21.77;;
3443;SDS011;1736;52.068;6.968;2022-09-12T05:03:44;40.57;;;21.20;;
3443;SDS011;1736;52.068;6.968;2022-09-12T05:06:13;46.07;;;22.50;;
3443;SDS011;1736;52.068;6.968;2022-09-12T05:08:41;41.87;;;21.70;;
3443;SDS011;1736;52.068;6.968;2022-09-12T05:11:09;46.33;;;23.13;;
3443;SDS011;1736;52.068;6.968;2022-09-12T05:13:37;49.37;;;23.83;;
3443;SDS011;1736;52.068;6.968;2022-09-12T05:16:05;49.97;;;23.97;;
3443;SDS011;1736;52.068;6.968;2022-09-12T05:18:34;51.43;;;23.63;;
3443;SDS011;1736;52.068;6.968;2022-09-12T05:21:02;47.03;;;23.37;;
3443;SDS011;1736;52.068;6.968;2022-09-12T05:23:31;46.90;;;24.73;;
3443;SDS011;1736;52.068;6.968;2022-09-12T05:25:58;49.73;;;23.20;;
3443;SDS011;1736;52.068;6.968;2022-09-12T05:28:27;46.87;;;22.63;;
3443;SDS011;1736;52.068;6.968;2022-09-12T05:30:58;49.80;;;23.70;;
3443;SDS011;1736;52.068;6.968;2022-09-12T05:33:26;46.50;;;22.60;;
3443;SDS011;1736;52.068;6.968;2022-09-12T05:35:54;56.20;;;23.97;;
3443;SDS011;1736;52.068;6.968;2022-09-12T05:38:20;43.50;;;21.90;;
3443;SDS011;1736;52.068;6.968;2022-09-12T05:40:48;46.20;;;22.63;;
3443;SDS011;1736;52.068;6.968;2022-09-12T05:43:14;46.23;;;21.60;;
3443;SDS011;1736;52.068;6.968;2022-09-12T05:45:42;47.33;;;22.53;;
3443;SDS011;1736;52.068;6.968;2022-09-12T05:48:08;40.30;;;22.67;;
3443;SDS011;1736;52.068;6.968;2022-09-12T05:50:35;52.23;;;23.47;;
3443;SDS011;1736;52.068;6.968;2022-09-12T05:53:03;39.83;;;21.13;;
3443;SDS011;1736;52.068;6.968;2022-09-12T05:55:29;45.77;;;23.00;;
3443;SDS011;1736;52.068;6.968;2022-09-12T05:57:57;42.93;;;22.43;;
3443;SDS011;1736;52.068;6.968;2022-09-12T06:00:23;48.70;;;22.27;;
3443;SDS011;1736;52.068;6.968;2022-09-12T06:02:50;40.60;;;21.97;;
3443;SDS011;1736;52.068;6.968;2022-09-12T06:05:17;56.50;;;22.90;;
3443;SDS011;1736;52.068;6.968;2022-09-12T06:07:44;39.67;;;21.50;;
3443;SDS011;1736;52.068;6.968;2022-09-12T06:10:13;38.63;;;20.10;;
3443;SDS011;1736;52.068;6.968;2022-09-12T06:12:40;38.07;;;19.60;;
3443;SDS011;1736;52.068;6.968;2022-09-12T06:15:08;35.20;;;19.90;;
3443;SDS011;1736;52.068;6.968;2022-09-12T06:17:35;39.30;;;19.07;;
3443;SDS011;1736;52.068;6.968;2022-09-12T06:20:01;34.50;;;18.70;;
3443;SDS011;1736;52.068;6.968;2022-09-12T06:22:28;32.70;;;18.33;;
3443;SDS011;1736;52.068;6.968;2022-09-12T06:24:55;32.17;;;17.23;;
3443;SDS011;1736;52.068;6.968;2022-09-12T06:27:23;33.60;;;18.13;;
3443;SDS011;1736;52.068;6.968;2022-09-12T06:29:49;30.27;;;16.50;;
3443;SDS011;1736;52.068;6.968;2022-09-12T06:32:15;27.13;;;15.43;;
3443;SDS011;1736;52.068;6.968;2022-09-12T06:34:42;25.90;;;16.27;;
3443;SDS011;1736;52.068;6.968;2022-09-12T06:37:12;26.73;;;15.00;;
3443;SDS011;1736;52.068;6.968;2022-09-12T06:39:39;33.53;;;16.23;;
3443;SDS011;1736;52.068;6.968;2022-09-12T06:42:05;28.10;;;15.40;;
3443;SDS011;1736;52.068;6.968;2022-09-12T06:44:33;28.30;;;14.90;;
3443;SDS011;1736;52.068;6.968;2022-09-12T06:47:00;26.60;;;16.33;;
3443;SDS011;1736;52.068;6.968;2022-09-12T06:49:26;29.60;;;15.47;;
3443;SDS011;1736;52.068;6.968;2022-09-12T06:51:53;25.77;;;15.13;;
3443;SDS011;1736;52.068;6.968;2022-09-12T06:54:19;25.90;;;14.80;;
3443;SDS011;1736;52.068;6.968;2022-09-12T06:56:47;26.17;;;13.87;;
3443;SDS011;1736;52.068;6.968;2022-09-12T06:59:13;28.77;;;16.03;;
3443;SDS011;1736;52.068;6.968;2022-09-12T07:01:41;26.87;;;15.00;;
3443;SDS011;1736;52.068;6.968;2022-09-12T07:04:08;28.00;;;15.60;;
3443;SDS011;1736;52.068;6.968;2022-09-12T07:06:36;23.97;;;15.00;;
3443;SDS011;1736;52.068;6.968;2022-09-12T07:09:05;22.07;;;14.23;;
3443;SDS011;1736;52.068;6.968;2022-09-12T07:11:34;24.90;;;13.93;;
3443;SDS011;1736;52.068;6.968;2022-09-12T07:14:02;24.30;;;14.67;;
3443;SDS011;1736;52.068;6.968;2022-09-12T07:16:30;25.70;;;14.33;;
3443;SDS011;1736;52.068;6.968;2022-09-12T07:18:58;27.27;;;15.80;;
3443;SDS011;1736;52.068;6.968;2022-09-12T07:21:26;23.47;;;14.40;;
3443;SDS011;1736;52.068;6.968;2022-09-12T07:23:53;23.03;;;13.53;;
3443;SDS011;1736;52.068;6.968;2022-09-12T07:26:22;24.07;;;13.57;;
3443;SDS011;1736;52.068;6.968;2022-09-12T07:28:49;20.23;;;13.07;;
3443;SDS011;1736;52.068;6.968;2022-09-12T07:31:17;23.17;;;13.20;;
3443;SDS011;1736;52.068;6.968;2022-09-12T07:33:45;20.73;;;13.90;;
3443;SDS011;1736;52.068;6.968;2022-09-12T07:36:13;22.77;;;14.13;;
3443;SDS011;1736;52.068;6.968;2022-09-12T07:38:41;22.87;;;14.43;;
3443;SDS011;1736;52.068;6.968;2022-09-12T07:41:11;21.10;;;13.70;;
3443;SDS011;1736;52.068;6.968;2022-09-12T07:43:38;24.87;;;13.80;;
3443;SDS011;1736;52.068;6.968;2022-09-12T07:46:05;22.40;;;14.00;;
3443;SDS011;1736;52.068;6.968;2022-09-12T07:48:31;22.57;;;14.13;;
3443;SDS011;1736;52.068;6.968;2022-09-12T07:50:58;26.27;;;14.67;;
3443;SDS011;1736;52.068;6.968;2022-09-12T07:53:29;25.10;;;13.87;;
3443;SDS011;1736;52.068;6.968;2022-09-12T07:55:57;24.30;;;14.50;;
3443;SDS011;1736;52.068;6.968;2022-09-12T07:58:24;20.50;;;13.70;;
3443;SDS011;1736;52.068;6.968;2022-09-12T08:00:51;19.87;;;13.60;;
3443;SDS011;1736;52.068;6.968;2022-09-12T08:03:17;18.97;;;12.33;;
3443;SDS011;1736;52.068;6.968;2022-09-12T08:05:44;24.33;;;14.70;;
3443;SDS011;1736;52.068;6.968;2022-09-12T08:08:11;23.03;;;14.93;;
3443;SDS011;1736;52.068;6.968;2022-09-12T08:10:39;24.50;;;13.57;;
3443;SDS011;1736;52.068;6.968;2022-09-12T08:13:05;24.40;;;15.27;;
3443;SDS011;1736;52.068;6.968;2022-09-12T08:15:33;18.77;;;12.27;;
3443;SDS011;1736;52.068;6.968;2022-09-12T08:18:00;20.67;;;13.30;;
3443;SDS011;1736;52.068;6.968;2022-09-12T08:20:26;20.13;;;13.73;;
3443;SDS011;1736;52.068;6.968;2022-09-12T08:22:53;27.10;;;13.87;;
3443;SDS011;1736;52.068;6.968;2022-09-12T08:25:19;20.17;;;13.27;;
3443;SDS011;1736;52.068;6.968;2022-09-12T08:27:47;19.67;;;12.80;;
3443;SDS011;1736;52.068;6.968;2022-09-12T08:30:14;19.07;;;12.17;;
3443;SDS011;1736;52.068;6.968;2022-09-12T08:32:40;22.17;;;13.20;;
3443;SDS011;1736;52.068;6.968;2022-09-12T08:35:07;21.67;;;13.13;;
3443;SDS011;1736;52.068;6.968;2022-09-12T08:37:34;17.83;;;11.70;;
3443;SDS011;1736;52.068;6.968;2022-09-12T08:40:00;23.50;;;13.60;;
3443;SDS011;1736;52.068;6.968;2022-09-12T08:42:32;20.17;;;12.20;;
3443;SDS011;1736;52.068;6.968;2022-09-12T08:45:15;21.67;;;12.83;;
3443;SDS011;1736;52.068;6.968;2022-09-12T08:47:45;24.00;;;13.37;;
3443;SDS011;1736;52.068;6.968;2022-09-12T08:50:21;20.60;;;12.47;;
3443;SDS011;1736;52.068;6.968;2022-09-12T08:53:01;19.00;;;12.03;;
3443;SDS011;1736;52.068;6.968;2022-09-12T08:55:30;18.67;;;12.40;;
3443;SDS011;1736;52.068;6.968;2022-09-12T08:58:08;23.70;;;12.60;;
3443;SDS011;1736;52.068;6.968;2022-09-12T09:00:43;21.13;;;11.70;;
3443;SDS011;1736;52.068;6.968;2022-09-12T09:06:30;20.37;;;12.90;;
3443;SDS011;1736;52.068;6.968;2022-09-12T09:09:08;20.77;;;13.10;;
3443;SDS011;1736;52.068;6.968;2022-09-12T09:11:50;21.43;;;12.77;;
3443;SDS011;1736;52.068;6.968;2022-09-12T09:17:20;23.47;;;14.67;;
3443;SDS011;1736;52.068;6.968;2022-09-12T09:19:53;20.30;;;12.93;;
3443;SDS011;1736;52.068;6.968;2022-09-12T09:22:30;19.87;;;12.93;;
3443;SDS011;1736;52.068;6.968;2022-09-12T09:25:02;15.90;;;11.07;;
3443;SDS011;1736;52.068;6.968;2022-09-12T09:27:33;23.60;;;13.37;;
3443;SDS011;1736;52.068;6.968;2022-09-12T09:30:04;19.20;;;10.50;;
3443;SDS011;1736;52.068;6.968;2022-09-12T09:32:35;18.63;;;12.07;;
3443;SDS011;1736;52.068;6.968;2022-09-12T09:35:10;19.10;;;11.43;;
3443;SDS011;1736;52.068;6.968;2022-09-12T09:37:41;20.17;;;13.03;;
3443;SDS011;1736;52.068;6.968;2022-09-12T09:40:14;19.87;;;11.00;;
3443;SDS011;1736;52.068;6.968;2022-09-12T09:42:49;19.33;;;12.40;;
3443;SDS011;1736;52.068;6.968;2022-09-12T09:45:33;22.17;;;12.47;;
3443;SDS011;1736;52.068;6.968;2022-09-12T09:48:02;20.13;;;12.00;;
3443;SDS011;1736;52.068;6.968;2022-09-12T09:50:38;21.70;;;13.13;;
3443;SDS011;1736;52.068;6.968;2022-09-12T09:53:05;23.23;;;11.97;;
3443;SDS011;1736;52.068;6.968;2022-09-12T09:55:39;23.37;;;13.07;;
3443;SDS011;1736;52.068;6.968;2022-09-12T09:58:07;17.77;;;11.30;;
3443;SDS011;1736;52.068;6.968;2022-09-12T10:00:34;23.43;;;12.57;;
3443;SDS011;1736;52.068;6.968;2022-09-12T10:03:17;19.50;;;12.00;;
3443;SDS011;1736;52.068;6.968;2022-09-12T10:05:51;20.67;;;11.77;;
3443;SDS011;1736;52.068;6.968;2022-09-12T10:08:20;19.83;;;10.93;;
3443;SDS011;1736;52.068;6.968;2022-09-12T10:10:54;17.30;;;11.27;;
3443;SDS011;1736;52.068;6.968;2022-09-12T10:13:24;16.30;;;10.90;;
3443;SDS011;1736;52.068;6.968;2022-09-12T10:16:19;17.03;;;10.83;;
3443;SDS011;1736;52.068;6.968;2022-09-12T10:18:48;15.87;;;10.37;;
3443;SDS011;1736;52.068;6.968;2022-09-12T10:21:20;15.77;;;9.97;;
3443;SDS011;1736;52.068;6.968;2022-09-12T10:23:57;13.97;;;11.07;;
3443;SDS011;1736;52.068;6.968;2022-09-12T10:26:29;16.33;;;10.57;;
3443;SDS011;1736;52.068;6.968;2022-09-12T10:29:02;16.03;;;10.30;;
3443;SDS011;1736;52.068;6.968;2022-09-12T10:31:35;14.67;;;9.83;;
3443;SDS011;1736;52.068;6.968;2022-09-12T10:34:17;17.10;;;10.30;;
3443;SDS011;1736;52.068;6.968;2022-09-12T10:36:48;17.17;;;10.20;;
3443;SDS011;1736;52.068;6.968;2022-09-12T10:39:18;16.90;;;9.43;;
3443;SDS011;1736;52.068;6.968;2022-09-12T10:41:45;13.83;;;10.10;;
3443;SDS011;1736;52.068;6.968;2022-09-12T10:44:13;12.50;;;8.63;;
3443;SDS011;1736;52.068;6.968;2022-09-12T10:46:41;14.33;;;8.50;;
3443;SDS011;1736;52.068;6.968;2022-09-12T10:49:12;10.23;;;7.13;;
3443;SDS011;1736;52.068;6.968;2022-09-12T10:51:51;10.17;;;7.60;;
3443;SDS011;1736;52.068;6.968;2022-09-12T10:54:20;11.50;;;8.47;;
3443;SDS011;1736;52.068;6.968;2022-09-12T10:57:02;11.63;;;7.33;;
3443;SDS011;1736;52.068;6.968;2022-09-12T10:59:46;9.30;;;6.97;;
3443;SDS011;1736;52.068;6.968;2022-09-12T11:02:28;15.43;;;6.30;;
3443;SDS011;1736;52.068;6.968;2022-09-12T11:05:04;9.60;;;5.60;;
3443;SDS011;1736;52.068;6.968;2022-09-12T11:07:39;10.23;;;5.67;;
3443;SDS011;1736;52.068;6.968;2022-09-12T11:10:12;7.00;;;5.13;;
3443;SDS011;1736;52.068;6.968;2022-09-12T11:12:50;8.77;;;5.80;;
3443;SDS011;1736;52.068;6.968;2022-09-12T11:15:32;11.23;;;6.10;;
3443;SDS011;1736;52.068;6.968;2022-09-12T11:18:13;7.37;;;5.57;;
3443;SDS011;1736;52.068;6.968;2022-09-12T11:21:08;7.97;;;5.70;;
3443;SDS011;1736;52.068;6.968;2022-09-12T11:29:40;8.27;;;6.20;;
3443;SDS011;1736;52.068;6.968;2022-09-12T11:35:21;6.53;;;4.97;;
3443;SDS011;1736;52.068;6.968;2022-09-12T11:37:57;7.10;;;5.43;;
3443;SDS011;1736;52.068;6.968;2022-09-12T11:40:34;11.70;;;5.40;;
3443;SDS011;1736;52.068;6.968;2022-09-12T11:43:06;6.37;;;4.60;;
3443;SDS011;1736;52.068;6.968;2022-09-12T11:45:41;6.67;;;5.00;;
3443;SDS011;1736;52.068;6.968;2022-09-12T11:48:11;5.40;;;4.50;;
3443;SDS011;1736;52.068;6.968;2022-09-12T11:50:42;5.30;;;4.70;;
3443;SDS011;1736;52.068;6.968;2022-09-12T11:53:12;5.80;;;4.43;;
3443;SDS011;1736;52.068;6.968;2022-09-12T11:55:46;5.43;;;3.73;;
3443;SDS011;1736;52.068;6.968;2022-09-12T11:58:17;5.30;;;4.00;;
3443;SDS011;1736;52.068;6.968;2022-09-12T12:00:48;4.97;;;4.10;;
3443;SDS011;1736;52.068;6.968;2022-09-12T12:03:19;7.60;;;5.23;;
3443;SDS011;1736;52.068;6.968;2022-09-12T12:05:52;5.57;;;4.10;;
3443;SDS011;1736;52.068;6.968;2022-09-12T12:08:24;7.00;;;4.67;;
3443;SDS011;1736;52.068;6.968;2022-09-12T12:10:52;5.23;;;4.73;;
3443;SDS011;1736;52.068;6.968;2022-09-12T12:13:22;8.67;;;5.23;;
3443;SDS011;1736;52.068;6.968;2022-09-12T12:15:54;5.03;;;4.53;;
3443;SDS011;1736;52.068;6.968;2022-09-12T12:18:22;6.90;;;4.33;;
3443;SDS011;1736;52.068;6.968;2022-09-12T12:20:51;5.43;;;4.70;;
3443;SDS011;1736;52.068;6.968;2022-09-12T12:23:25;5.87;;;4.63;;
3443;SDS011;1736;52.068;6.968;2022-09-12T12:25:53;4.60;;;4.10;;
3443;SDS011;1736;52.068;6.968;2022-09-12T12:31:23;6.47;;;5.20;;
3443;SDS011;1736;52.068;6.968;2022-09-12T12:33:51;6.10;;;5.07;;
3443;SDS011;1736;52.068;6.968;2022-09-12T12:36:36;5.30;;;4.80;;
3443;SDS011;1736;52.068;6.968;2022-09-12T12:42:09;8.37;;;5.43;;
3443;SDS011;1736;52.068;6.968;2022-09-12T12:44:46;4.77;;;4.37;;
3443;SDS011;1736;52.068;6.968;2022-09-12T12:47:15;7.73;;;5.00;;
3443;SDS011;1736;52.068;6.968;2022-09-12T12:49:48;4.73;;;4.07;;
3443;SDS011;1736;52.068;6.968;2022-09-12T12:52:17;5.07;;;3.90;;
3443;SDS011;1736;52.068;6.968;2022-09-12T12:57:27;4.57;;;4.13;;
3443;SDS011;1736;52.068;6.968;2022-09-12T13:00:00;4.77;;;4.23;;
3443;SDS011;1736;52.068;6.968;2022-09-12T13:02:30;6.20;;;4.33;;
3443;SDS011;1736;52.068;6.968;2022-09-12T13:05:00;4.70;;;4.13;;
3443;SDS011;1736;52.068;6.968;2022-09-12T13:07:31;9.20;;;4.60;;
3443;SDS011;1736;52.068;6.968;2022-09-12T13:10:00;5.10;;;4.13;;
3443;SDS011;1736;52.068;6.968;2022-09-12T13:12:31;9.23;;;4.50;;
3443;SDS011;1736;52.068;6.968;2022-09-12T13:15:02;4.97;;;3.70;;
3443;SDS011;1736;52.068;6.968;2022-09-12T13:17:33;5.03;;;4.00;;
3443;SDS011;1736;52.068;6.968;2022-09-12T13:20:04;5.30;;;4.10;;
3443;SDS011;1736;52.068;6.968;2022-09-12T13:22:42;5.67;;;3.77;;
3443;SDS011;1736;52.068;6.968;2022-09-12T13:25:20;5.80;;;4.70;;
3443;SDS011;1736;52.068;6.968;2022-09-12T13:27:58;7.93;;;4.80;;
3443;SDS011;1736;52.068;6.968;2022-09-12T13:30:27;9.90;;;4.40;;
3443;SDS011;1736;52.068;6.968;2022-09-12T13:32:55;7.90;;;4.37;;
3443;SDS011;1736;52.068;6.968;2022-09-12T13:35:25;5.70;;;5.10;;
3443;SDS011;1736;52.068;6.968;2022-09-12T13:38:05;5.43;;;4.53;;
3443;SDS011;1736;52.068;6.968;2022-09-12T13:40:44;6.10;;;3.80;;
3443;SDS011;1736;52.068;6.968;2022-09-12T13:43:22;5.67;;;4.33;;
3443;SDS011;1736;52.068;6.968;2022-09-12T13:46:01;6.77;;;4.10;;
3443;SDS011;1736;52.068;6.968;2022-09-12T13:48:27;7.40;;;4.30;;
3443;SDS011;1736;52.068;6.968;2022-09-12T13:50:54;4.43;;;3.90;;
3443;SDS011;1736;52.068;6.968;2022-09-12T13:53:24;5.50;;;4.13;;
3443;SDS011;1736;52.068;6.968;2022-09-12T13:56:00;4.10;;;3.57;;
3443;SDS011;1736;52.068;6.968;2022-09-12T13:58:29;4.60;;;3.87;;
3443;SDS011;1736;52.068;6.968;2022-09-12T14:01:01;5.47;;;4.67;;
3443;SDS011;1736;52.068;6.968;2022-09-12T14:03:31;5.23;;;4.37;;
3443;SDS011;1736;52.068;6.968;2022-09-12T14:06:15;4.30;;;3.57;;
3443;SDS011;1736;52.068;6.968;2022-09-12T14:08:44;7.30;;;5.13;;
3443;SDS011;1736;52.068;6.968;2022-09-12T14:11:16;6.93;;;4.30;;
3443;SDS011;1736;52.068;6.968;2022-09-12T14:13:51;6.40;;;4.20;;
3443;SDS011;1736;52.068;6.968;2022-09-12T14:16:19;5.80;;;4.13;;
3443;SDS011;1736;52.068;6.968;2022-09-12T14:18:48;4.43;;;4.00;;
3443;SDS011;1736;52.068;6.968;2022-09-12T14:21:19;4.20;;;3.80;;
3443;SDS011;1736;52.068;6.968;2022-09-12T14:23:55;4.53;;;3.97;;
3443;SDS011;1736;52.068;6.968;2022-09-12T14:26:23;4.00;;;3.70;;
3443;SDS011;1736;52.068;6.968;2022-09-12T14:28:53;5.73;;;3.77;;
3443;SDS011;1736;52.068;6.968;2022-09-12T14:31:21;4.23;;;3.83;;
3443;SDS011;1736;52.068;6.968;2022-09-12T14:33:51;4.57;;;3.80;;
3443;SDS011;1736;52.068;6.968;2022-09-12T14:36:21;6.83;;;3.97;;
3443;SDS011;1736;52.068;6.968;2022-09-12T14:38:50;4.60;;;3.20;;
3443;SDS011;1736;52.068;6.968;2022-09-12T14:41:21;4.90;;;3.70;;
3443;SDS011;1736;52.068;6.968;2022-09-12T14:43:50;4.67;;;3.80;;
3443;SDS011;1736;52.068;6.968;2022-09-12T14:46:22;4.00;;;3.70;;
3443;SDS011;1736;52.068;6.968;2022-09-12T14:48:52;3.67;;;3.37;;
3443;SDS011;1736;52.068;6.968;2022-09-12T14:51:22;11.70;;;3.50;;
3443;SDS011;1736;52.068;6.968;2022-09-12T14:53:52;3.50;;;3.20;;
3443;SDS011;1736;52.068;6.968;2022-09-12T14:56:19;3.80;;;3.50;;
3443;SDS011;1736;52.068;6.968;2022-09-12T14:59:18;3.60;;;3.27;;
3443;SDS011;1736;52.068;6.968;2022-09-12T15:02:19;3.37;;;3.07;;
3443;SDS011;1736;52.068;6.968;2022-09-12T15:04:50;3.73;;;3.43;;
3443;SDS011;1736;52.068;6.968;2022-09-12T15:07:20;6.30;;;3.70;;
3443;SDS011;1736;52.068;6.968;2022-09-12T15:09:56;4.23;;;3.43;;
3443;SDS011;1736;52.068;6.968;2022-09-12T15:12:24;6.10;;;3.10;;
3443;SDS011;1736;52.068;6.968;2022-09-12T15:14:50;3.30;;;3.00;;
3443;SDS011;1736;52.068;6.968;2022-09-12T15:17:18;3.67;;;3.23;;
3443;SDS011;1736;52.068;6.968;2022-09-12T15:19:45;3.30;;;3.10;;
3443;SDS011;1736;52.068;6.968;2022-09-12T15:22:11;3.30;;;2.90;;
3443;SDS011;1736;52.068;6.968;2022-09-12T15:24:38;4.03;;;2.90;;
3443;SDS011;1736;52.068;6.968;2022-09-12T15:27:08;3.00;;;2.67;;
3443;SDS011;1736;52.068;6.968;2022-09-12T15:29:35;2.93;;;2.70;;
3443;SDS011;1736;52.068;6.968;2022-09-12T15:32:02;3.40;;;2.60;;
3443;SDS011;1736;52.068;6.968;2022-09-12T15:34:31;3.10;;;2.80;;
3443;SDS011;1736;52.068;6.968;2022-09-12T15:37:04;5.97;;;3.27;;
3443;SDS011;1736;52.068;6.968;2022-09-12T15:39:34;2.90;;;2.70;;
3443;SDS011;1736;52.068;6.968;2022-09-12T15:42:00;4.90;;;2.87;;
3443;SDS011;1736;52.068;6.968;2022-09-12T15:44:27;3.03;;;2.83;;
3443;SDS011;1736;52.068;6.968;2022-09-12T15:46:53;3.10;;;2.50;;